METAR Data
IDs: Format: Raw Decoded Include TAF

Data at: 1409 UTC 21 Apr 2021

METAR for:KOLZ (Oelwein Muni, IA, US)
Text:KOLZ 211355Z AUTO 34010KT 10SM FEW090 02/M07 A3017 RMK A01
Temperature: 2.0°C ( 36°F)
Dewpoint: -7.0°C ( 19°F) [RH = 51%]
Pressure (altimeter):30.17 inches Hg (1021.8 mb)
Winds:from the NNW (340 degrees) at 12 MPH (10 knots; 5.1 m/s)
Visibility:10 or more sm (16+ km)
Ceiling:at least 12,000 feet AGL
Clouds: few clouds at 9000 feet AGL
QC Flag:automated observation with no human augmentation